createdAt,value
2017-08-16T00:01:11.487Z,11.20
2017-08-16T00:03:39.784Z,12.13
2017-08-16T00:06:08.048Z,12.00
2017-08-16T00:08:36.605Z,14.33
2017-08-16T00:11:04.894Z,15.80
2017-08-16T00:13:33.914Z,13.43
2017-08-16T00:16:03.134Z,13.73
2017-08-16T00:18:31.412Z,16.00
2017-08-16T00:20:59.659Z,19.10
2017-08-16T00:23:27.939Z,20.60
2017-08-16T00:25:56.227Z,22.30
2017-08-16T00:28:24.640Z,25.10
2017-08-16T00:30:53.709Z,23.67
2017-08-16T00:33:21.972Z,25.20
2017-08-16T00:35:50.320Z,27.17
2017-08-16T00:38:18.600Z,26.90
2017-08-16T00:40:47.004Z,25.00
2017-08-16T00:43:15.623Z,32.20
2017-08-16T00:45:44.692Z,30.60
2017-08-16T00:48:13.022Z,28.10
2017-08-16T00:50:42.069Z,29.40
2017-08-16T00:53:10.399Z,32.97
2017-08-16T00:55:38.737Z,32.37
2017-08-16T00:58:07.191Z,31.40
2017-08-16T01:00:35.589Z,35.03
2017-08-16T01:03:04.921Z,34.53
2017-08-16T01:05:33.986Z,32.97
2017-08-16T01:08:02.305Z,32.33
2017-08-16T01:10:31.352Z,35.67
2017-08-16T01:12:59.783Z,36.57
2017-08-16T01:15:28.042Z,36.50
2017-08-16T01:17:56.325Z,36.90
2017-08-16T01:20:24.655Z,35.00
2017-08-16T01:22:52.956Z,34.60
2017-08-16T01:25:21.231Z,37.80
2017-08-16T01:27:49.490Z,38.20
2017-08-16T01:30:17.797Z,37.40
2017-08-16T01:32:46.152Z,38.57
2017-08-16T01:35:14.519Z,37.33
2017-08-16T01:37:42.812Z,37.60
2017-08-16T01:40:15.028Z,36.77
2017-08-16T01:42:44.160Z,38.40
2017-08-16T01:45:12.428Z,37.93
2017-08-16T01:47:40.729Z,36.67
2017-08-16T01:50:08.976Z,37.83
2017-08-16T01:52:37.288Z,39.23
2017-08-16T01:55:05.567Z,37.00
2017-08-16T01:57:33.907Z,37.70
2017-08-16T02:00:02.191Z,36.23
2017-08-16T02:02:30.472Z,39.10
2017-08-16T02:04:58.792Z,37.77
2017-08-16T02:07:27.204Z,37.60
2017-08-16T02:09:55.484Z,34.83
2017-08-16T02:12:23.749Z,35.80
2017-08-16T02:14:52.995Z,36.10
2017-08-16T02:17:21.283Z,37.73
2017-08-16T02:19:49.530Z,35.03
2017-08-16T02:22:17.804Z,36.33
2017-08-16T02:24:46.281Z,34.03
2017-08-16T02:27:14.695Z,34.80
2017-08-16T02:29:43.959Z,36.37
2017-08-16T02:32:12.217Z,37.13
2017-08-16T02:34:40.526Z,37.23
2017-08-16T02:37:08.795Z,36.90
2017-08-16T02:39:37.056Z,35.60
2017-08-16T02:42:05.342Z,36.33
2017-08-16T02:44:33.667Z,35.07
2017-08-16T02:47:01.945Z,35.17
2017-08-16T02:49:30.227Z,34.83
2017-08-16T02:51:58.497Z,34.00
2017-08-16T02:54:26.755Z,33.23
2017-08-16T02:56:55.048Z,33.40
2017-08-16T02:59:23.299Z,34.87
2017-08-16T03:01:51.582Z,32.83
2017-08-16T03:04:19.896Z,32.90
2017-08-16T03:06:48.160Z,35.77
2017-08-16T03:09:17.219Z,33.47
2017-08-16T03:11:45.530Z,31.30
2017-08-16T03:14:13.860Z,31.33
2017-08-16T03:16:42.228Z,32.63
2017-08-16T03:19:10.524Z,32.20
2017-08-16T03:21:38.816Z,31.23
2017-08-16T03:24:07.512Z,31.70
2017-08-16T03:26:35.818Z,31.07
2017-08-16T03:29:04.082Z,33.63
2017-08-16T03:31:32.356Z,31.10
2017-08-16T03:34:01.412Z,32.83
2017-08-16T03:36:29.695Z,32.07
2017-08-16T03:38:58.035Z,31.57
2017-08-16T03:41:26.318Z,32.80
2017-08-16T03:43:54.796Z,30.37
2017-08-16T03:46:23.031Z,32.23
2017-08-16T03:48:52.222Z,30.37
2017-08-16T03:51:20.507Z,31.13
2017-08-16T03:53:49.766Z,30.23
2017-08-16T03:56:18.107Z,30.30
2017-08-16T03:58:46.490Z,29.63
2017-08-16T04:01:15.643Z,31.60
2017-08-16T04:03:43.972Z,31.17
2017-08-16T04:06:13.132Z,33.67
2017-08-16T04:08:41.486Z,32.80
2017-08-16T04:11:09.819Z,32.20
2017-08-16T04:13:38.923Z,31.57
2017-08-16T04:16:07.267Z,32.60
2017-08-16T04:18:35.679Z,34.30
2017-08-16T04:21:04.744Z,34.13
2017-08-16T04:23:33.812Z,34.60
2017-08-16T04:26:02.268Z,35.30
2017-08-16T04:28:31.408Z,36.70
2017-08-16T04:30:59.745Z,34.43
2017-08-16T04:33:28.066Z,34.30
2017-08-16T04:35:56.360Z,39.83
2017-08-16T04:38:24.627Z,37.37
2017-08-16T04:40:52.905Z,35.73
2017-08-16T04:43:21.247Z,36.60
2017-08-16T04:45:49.542Z,36.27
2017-08-16T04:48:17.822Z,36.83
2017-08-16T04:50:46.159Z,38.50
2017-08-16T04:53:14.457Z,38.10
2017-08-16T04:55:42.795Z,40.63
2017-08-16T04:58:11.105Z,38.23
2017-08-16T05:00:39.439Z,37.50
2017-08-16T05:03:08.585Z,39.50
2017-08-16T05:05:36.917Z,37.00
2017-08-16T05:08:05.258Z,40.20
2017-08-16T05:10:33.592Z,40.43
2017-08-16T05:13:02.015Z,41.17
2017-08-16T05:15:30.319Z,42.97
2017-08-16T05:17:58.615Z,39.97
2017-08-16T05:20:28.801Z,40.30
2017-08-16T05:22:57.144Z,41.70
2017-08-16T05:25:25.436Z,39.40
2017-08-16T05:27:53.768Z,42.13
2017-08-16T05:30:22.076Z,40.27
2017-08-16T05:32:51.399Z,42.63
2017-08-16T05:35:19.690Z,42.50
2017-08-16T05:37:47.963Z,39.77
2017-08-16T05:40:16.257Z,39.70
2017-08-16T05:42:44.558Z,41.77
2017-08-16T05:45:12.844Z,40.20
2017-08-16T05:47:41.168Z,42.60
2017-08-16T05:50:09.524Z,41.10
2017-08-16T05:52:37.854Z,39.97
2017-08-16T05:55:06.173Z,42.20
2017-08-16T05:57:34.520Z,43.10
2017-08-16T06:00:02.750Z,40.77
2017-08-16T06:02:31.072Z,42.10
2017-08-16T06:04:59.314Z,41.77
2017-08-16T06:07:27.590Z,42.40
2017-08-16T06:09:55.899Z,39.57
2017-08-16T06:12:24.939Z,40.37
2017-08-16T06:14:53.264Z,38.83
2017-08-16T06:17:21.549Z,40.30
2017-08-16T06:19:49.796Z,41.87
2017-08-16T06:22:18.054Z,39.20
2017-08-16T06:24:46.456Z,40.30
2017-08-16T06:27:14.742Z,39.10
2017-08-16T06:29:43.042Z,34.47
2017-08-16T06:32:13.083Z,33.23
2017-08-16T06:34:41.475Z,33.43
2017-08-16T06:37:09.779Z,31.10
2017-08-16T06:39:38.049Z,34.73
2017-08-16T06:42:06.435Z,36.53
2017-08-16T06:44:34.683Z,38.67
2017-08-16T06:47:03.109Z,35.70
2017-08-16T06:49:31.406Z,35.00
2017-08-16T06:51:59.680Z,36.17
2017-08-16T06:54:27.943Z,35.90
2017-08-16T06:56:56.203Z,37.57
2017-08-16T06:59:24.496Z,32.47
2017-08-16T07:01:52.752Z,31.30
2017-08-16T07:04:21.051Z,31.40
2017-08-16T07:06:50.155Z,34.30
2017-08-16T07:09:18.426Z,38.20
2017-08-16T07:11:46.728Z,34.70
2017-08-16T07:14:14.988Z,32.77
2017-08-16T07:16:43.400Z,30.53
2017-08-16T07:19:11.681Z,38.00
2017-08-16T07:21:40.775Z,32.57
2017-08-16T07:24:09.100Z,30.47
2017-08-16T07:26:37.419Z,32.00
2017-08-16T07:29:06.522Z,31.90
2017-08-16T07:31:34.808Z,33.20
2017-08-16T07:34:03.072Z,28.17
2017-08-16T07:36:31.372Z,29.33
2017-08-16T07:38:59.676Z,27.87
2017-08-16T07:41:29.013Z,27.87
2017-08-16T07:43:57.230Z,28.30
2017-08-16T07:46:25.509Z,23.50
2017-08-16T07:48:53.768Z,23.13
2017-08-16T07:51:22.063Z,26.80
2017-08-16T07:53:50.315Z,24.03
2017-08-16T07:56:18.607Z,23.40
2017-08-16T07:58:46.918Z,22.33
2017-08-16T08:01:15.175Z,20.97
2017-08-16T08:03:43.460Z,22.30
2017-08-16T08:06:11.829Z,20.33
2017-08-16T08:08:40.115Z,23.43
2017-08-16T08:11:08.384Z,24.93
2017-08-16T08:13:36.669Z,23.50
2017-08-16T08:16:05.797Z,25.67
2017-08-16T08:18:34.827Z,23.30
2017-08-16T08:21:03.139Z,23.30
2017-08-16T08:23:31.436Z,23.20
2017-08-16T08:25:59.720Z,19.70
2017-08-16T08:28:27.990Z,20.13
2017-08-16T08:30:56.277Z,21.33
2017-08-16T08:33:25.312Z,14.77
2017-08-16T08:35:53.606Z,11.77
2017-08-16T08:38:21.886Z,11.50
2017-08-16T08:40:50.168Z,10.97
2017-08-16T08:43:18.433Z,11.30
2017-08-16T08:45:52.641Z,12.23
2017-08-16T08:48:21.020Z,11.10
2017-08-16T08:50:49.324Z,15.10
2017-08-16T08:53:17.642Z,20.20
2017-08-16T08:55:45.887Z,16.87
2017-08-16T08:58:14.190Z,18.30
2017-08-16T09:00:44.161Z,16.27
2017-08-16T09:03:12.492Z,19.07
2017-08-16T09:05:40.768Z,17.67
2017-08-16T09:08:09.059Z,17.73
2017-08-16T09:10:37.389Z,18.23
2017-08-16T09:13:05.729Z,17.30
2017-08-16T09:15:34.016Z,15.23
2017-08-16T09:18:02.259Z,15.90
2017-08-16T09:20:30.572Z,15.53
2017-08-16T09:22:58.862Z,15.60
2017-08-16T09:25:27.134Z,15.17
2017-08-16T09:27:55.540Z,14.83
2017-08-16T09:30:24.573Z,13.67
2017-08-16T09:32:52.863Z,13.70
2017-08-16T09:35:21.172Z,16.03
2017-08-16T09:37:49.475Z,15.23
2017-08-16T09:40:17.760Z,14.60
2017-08-16T09:42:46.089Z,14.63
2017-08-16T09:45:14.335Z,16.20
2017-08-16T09:47:42.609Z,14.93
2017-08-16T09:50:11.052Z,15.50
2017-08-16T09:52:40.174Z,17.07
2017-08-16T09:55:08.457Z,16.70
2017-08-16T09:57:36.750Z,17.53
2017-08-16T10:00:05.023Z,16.80
2017-08-16T10:02:33.458Z,16.90
2017-08-16T10:05:01.747Z,16.00
2017-08-16T10:07:30.032Z,17.03
2017-08-16T10:09:58.513Z,18.33
2017-08-16T10:12:27.534Z,16.10
2017-08-16T10:14:55.828Z,13.80
2017-08-16T10:17:26.870Z,15.00
2017-08-16T10:19:55.165Z,16.00
2017-08-16T10:22:23.444Z,13.63
2017-08-16T10:24:52.474Z,15.37
2017-08-16T10:27:20.801Z,15.00
2017-08-16T10:29:49.113Z,13.73
2017-08-16T10:32:18.199Z,12.53
2017-08-16T10:34:47.263Z,13.63
2017-08-16T10:37:15.590Z,12.37
2017-08-16T10:39:47.516Z,13.13
2017-08-16T10:42:16.735Z,13.37
2017-08-16T10:44:46.518Z,11.23
2017-08-16T10:47:14.808Z,9.13
2017-08-16T10:49:43.202Z,7.43
2017-08-16T10:52:11.476Z,7.70
2017-08-16T10:54:39.771Z,8.90
2017-08-16T10:57:08.782Z,8.17
2017-08-16T10:59:37.055Z,8.90
2017-08-16T11:02:05.321Z,9.43
2017-08-16T11:04:36.738Z,8.73
2017-08-16T11:07:05.029Z,7.80
2017-08-16T11:09:33.276Z,8.20
2017-08-16T11:12:02.381Z,7.00
2017-08-16T11:14:30.679Z,8.70
2017-08-16T11:16:59.778Z,7.30
2017-08-16T11:19:28.031Z,8.63
2017-08-16T11:21:56.280Z,7.60
2017-08-16T11:24:24.612Z,10.20
2017-08-16T11:26:52.945Z,9.40
2017-08-16T11:29:21.214Z,9.70
2017-08-16T11:31:49.591Z,12.50
2017-08-16T11:34:17.875Z,8.47
2017-08-16T11:36:46.213Z,6.87
2017-08-16T11:39:14.445Z,6.63
2017-08-16T11:41:42.765Z,7.30
2017-08-16T11:44:11.004Z,6.23
2017-08-16T11:46:39.287Z,6.03
2017-08-16T11:49:07.533Z,7.37
2017-08-16T11:51:35.859Z,6.70
2017-08-16T11:54:04.156Z,5.77
2017-08-16T11:56:32.590Z,6.70
2017-08-16T11:59:00.858Z,6.00
2017-08-16T12:01:29.129Z,6.17
2017-08-16T12:03:57.377Z,6.07
2017-08-16T12:06:26.449Z,7.77
2017-08-16T12:08:54.784Z,7.10
2017-08-16T12:11:23.063Z,6.70
2017-08-16T12:13:51.347Z,7.17
2017-08-16T12:16:19.742Z,6.43
2017-08-16T12:18:48.032Z,6.53
2017-08-16T12:21:16.353Z,6.70
2017-08-16T12:23:44.659Z,7.13
2017-08-16T12:26:13.021Z,6.60
2017-08-16T12:28:41.289Z,6.70
2017-08-16T12:31:09.590Z,6.70
2017-08-16T12:33:37.844Z,7.60
2017-08-16T12:36:06.124Z,7.70
2017-08-16T12:38:34.415Z,6.47
2017-08-16T12:41:03.622Z,7.40
2017-08-16T12:43:31.883Z,7.67
2017-08-16T12:46:00.153Z,6.50
2017-08-16T12:48:28.467Z,8.63
2017-08-16T12:50:56.909Z,7.43
2017-08-16T12:53:25.429Z,6.70
2017-08-16T12:55:53.996Z,5.97
2017-08-16T12:58:22.399Z,6.03
2017-08-16T13:00:51.666Z,6.47
2017-08-16T13:03:19.935Z,5.53
2017-08-16T13:05:48.315Z,6.60
2017-08-16T13:08:16.669Z,6.10
2017-08-16T13:10:45.019Z,6.30
2017-08-16T13:13:13.316Z,6.70
2017-08-16T13:15:41.576Z,6.67
2017-08-16T13:18:09.835Z,6.33
2017-08-16T13:20:39.014Z,6.40
2017-08-16T13:23:08.033Z,5.63
2017-08-16T13:25:36.319Z,6.70
2017-08-16T13:28:04.603Z,6.80
2017-08-16T13:30:32.854Z,5.60
2017-08-16T13:33:01.217Z,4.80
2017-08-16T13:35:30.995Z,6.10
2017-08-16T13:37:59.421Z,5.23
2017-08-16T13:40:28.675Z,5.30
2017-08-16T13:42:56.956Z,4.47
2017-08-16T13:45:25.241Z,5.80
2017-08-16T13:47:53.560Z,5.40
2017-08-16T13:50:21.888Z,5.40
2017-08-16T13:52:50.175Z,5.30
2017-08-16T13:55:18.451Z,6.27
2017-08-16T13:57:46.749Z,5.70
2017-08-16T14:00:15.823Z,5.40
2017-08-16T14:02:44.140Z,6.00
2017-08-16T14:05:12.421Z,5.30
2017-08-16T14:07:40.706Z,6.07
2017-08-16T14:10:08.994Z,6.10
2017-08-16T14:12:37.289Z,5.60
2017-08-16T14:15:06.418Z,4.60
2017-08-16T14:17:34.779Z,5.30
2017-08-16T14:20:03.162Z,6.13
2017-08-16T14:22:31.448Z,5.30
2017-08-16T14:25:00.537Z,4.80
2017-08-16T14:27:28.939Z,5.83
2017-08-16T14:29:57.996Z,5.60
2017-08-16T14:32:26.287Z,5.57
2017-08-16T14:34:54.545Z,5.43
2017-08-16T14:37:22.851Z,5.27
2017-08-16T14:39:51.886Z,5.47
2017-08-16T14:42:20.182Z,5.40
2017-08-16T14:44:49.257Z,5.47
2017-08-16T14:47:17.524Z,4.70
2017-08-16T14:49:45.816Z,5.20
2017-08-16T14:52:14.079Z,5.30
2017-08-16T14:54:42.374Z,4.53
2017-08-16T14:57:10.671Z,5.40
2017-08-16T14:59:38.972Z,4.87
2017-08-16T15:02:07.286Z,5.23
2017-08-16T15:04:35.549Z,4.23
2017-08-16T15:07:04.048Z,4.23
2017-08-16T15:09:32.353Z,5.00
2017-08-16T15:12:01.441Z,4.70
2017-08-16T15:14:29.786Z,4.00
2017-08-16T15:19:59.611Z,4.83
2017-08-16T15:22:28.676Z,5.07
2017-08-16T15:24:57.850Z,4.90
2017-08-16T15:27:26.206Z,4.57
2017-08-16T15:29:54.523Z,5.27
2017-08-16T15:32:22.935Z,4.90
2017-08-16T15:34:51.429Z,4.90
2017-08-16T15:37:19.700Z,4.60
2017-08-16T15:39:48.007Z,4.90
2017-08-16T15:42:16.352Z,4.43
2017-08-16T15:44:44.648Z,4.70
2017-08-16T15:47:12.954Z,4.00
2017-08-16T15:49:41.252Z,4.43
2017-08-16T15:52:09.629Z,4.40
2017-08-16T15:54:38.019Z,4.10
2017-08-16T15:57:07.164Z,4.20
2017-08-16T15:59:35.440Z,4.30
2017-08-16T16:02:03.785Z,3.53
2017-08-16T16:04:32.827Z,4.50
2017-08-16T16:07:01.167Z,4.77
2017-08-16T16:09:29.473Z,4.43
2017-08-16T16:11:57.737Z,4.40
2017-08-16T16:14:26.167Z,4.00
2017-08-16T16:16:54.443Z,5.47
2017-08-16T16:19:22.734Z,5.00
2017-08-16T16:21:51.371Z,4.30
2017-08-16T16:24:19.761Z,4.53
2017-08-16T16:26:48.091Z,4.43
2017-08-16T16:29:16.423Z,5.10
2017-08-16T16:31:44.846Z,4.50
2017-08-16T16:34:13.149Z,4.30
2017-08-16T16:36:41.480Z,4.77
2017-08-16T16:39:10.560Z,5.10
2017-08-16T16:41:38.992Z,4.00
2017-08-16T16:44:07.400Z,4.40
2017-08-16T16:46:35.773Z,4.40
2017-08-16T16:49:04.087Z,4.23
2017-08-16T16:51:32.429Z,4.63
2017-08-16T16:54:00.797Z,5.00
2017-08-16T16:56:29.093Z,4.50
2017-08-16T16:58:58.203Z,5.33
2017-08-16T17:01:26.510Z,5.20
2017-08-16T17:03:55.584Z,5.70
2017-08-16T17:06:23.873Z,6.00
2017-08-16T17:08:59.029Z,6.37
2017-08-16T17:11:27.313Z,6.20
2017-08-16T17:13:55.580Z,6.20
2017-08-16T17:16:24.629Z,6.50
2017-08-16T17:18:52.940Z,7.00
2017-08-16T17:21:22.042Z,5.80
2017-08-16T17:23:51.087Z,6.27
2017-08-16T17:26:19.501Z,5.67
2017-08-16T17:28:47.980Z,5.63
2017-08-16T17:31:16.313Z,4.93
2017-08-16T17:33:44.728Z,5.53
2017-08-16T17:36:13.037Z,5.67
2017-08-16T17:38:42.369Z,5.07
2017-08-16T17:41:10.632Z,6.47
2017-08-16T17:43:39.863Z,7.03
2017-08-16T17:46:09.992Z,6.57
2017-08-16T17:48:38.491Z,5.80
2017-08-16T17:51:07.900Z,6.03
2017-08-16T17:53:36.974Z,6.20
2017-08-16T17:56:05.261Z,6.43
2017-08-16T17:58:34.496Z,6.20
2017-08-16T18:01:02.838Z,6.13
2017-08-16T18:03:31.175Z,6.43
2017-08-16T18:06:00.281Z,6.00
2017-08-16T18:08:28.572Z,6.20
2017-08-16T18:11:02.748Z,5.50
2017-08-16T18:13:31.821Z,6.47
2017-08-16T18:16:00.892Z,5.77
2017-08-16T18:18:29.374Z,6.60
2017-08-16T18:20:57.664Z,5.60
2017-08-16T18:23:25.991Z,7.50
2017-08-16T18:25:54.329Z,6.23
2017-08-16T18:28:23.421Z,6.67
2017-08-16T18:30:51.759Z,6.67
2017-08-16T18:33:20.263Z,7.17
2017-08-16T18:35:48.658Z,6.43
2017-08-16T18:38:17.862Z,6.70
2017-08-16T18:40:46.998Z,6.70
2017-08-16T18:43:15.413Z,7.10
2017-08-16T18:45:43.950Z,6.00
2017-08-16T18:48:12.443Z,6.67
2017-08-16T18:50:40.720Z,6.30
2017-08-16T18:53:09.007Z,6.70
2017-08-16T18:55:37.377Z,6.00
2017-08-16T18:58:05.671Z,6.60
2017-08-16T19:00:34.069Z,6.23
2017-08-16T19:03:02.609Z,6.23
2017-08-16T19:05:30.955Z,6.37
2017-08-16T19:07:59.245Z,6.90
2017-08-16T19:10:27.566Z,6.50
2017-08-16T19:12:55.885Z,6.50
2017-08-16T19:15:24.190Z,6.63
2017-08-16T19:17:52.518Z,6.20
2017-08-16T19:20:20.925Z,6.47
2017-08-16T19:22:49.221Z,5.00
2017-08-16T19:25:18.341Z,6.00
2017-08-16T19:27:46.732Z,5.83
2017-08-16T19:30:15.054Z,5.00
2017-08-16T19:32:43.388Z,5.10
2017-08-16T19:35:12.521Z,4.60
2017-08-16T19:37:41.027Z,4.43
2017-08-16T19:40:09.391Z,6.40
2017-08-16T19:42:37.664Z,4.43
2017-08-16T19:45:06.283Z,5.27
2017-08-16T19:47:34.766Z,4.60
2017-08-16T19:50:03.153Z,4.60
2017-08-16T19:52:31.631Z,5.20
2017-08-16T19:55:00.330Z,5.10
2017-08-16T19:57:28.685Z,5.20
2017-08-16T19:59:57.056Z,5.13
2017-08-16T20:02:26.199Z,5.50
2017-08-16T20:04:54.597Z,5.60
2017-08-16T20:07:23.069Z,4.70
2017-08-16T20:09:51.635Z,5.60
2017-08-16T20:12:21.087Z,4.83
2017-08-16T20:14:49.600Z,4.50
2017-08-16T20:17:18.204Z,4.97
2017-08-16T20:19:46.642Z,4.73
2017-08-16T20:22:15.727Z,4.97
2017-08-16T20:24:44.852Z,4.90
2017-08-16T20:27:13.312Z,4.67
2017-08-16T20:29:41.669Z,5.67
2017-08-16T20:32:09.948Z,5.67
2017-08-16T20:34:38.332Z,5.17
2017-08-16T20:37:06.801Z,4.67
2017-08-16T20:39:35.206Z,5.70
2017-08-16T20:42:03.538Z,5.23
2017-08-16T20:44:32.676Z,4.70
2017-08-16T20:47:00.938Z,6.33
2017-08-16T20:49:29.352Z,6.03
2017-08-16T20:51:57.826Z,4.97
2017-08-16T20:54:26.924Z,5.70
2017-08-16T20:56:56.118Z,5.83
2017-08-16T20:59:24.957Z,6.93
2017-08-16T21:01:53.280Z,7.23
2017-08-16T21:04:22.480Z,8.20
2017-08-16T21:06:51.707Z,7.70
2017-08-16T21:09:21.708Z,8.70
2017-08-16T21:11:50.789Z,6.80
2017-08-16T21:14:19.129Z,7.37
2017-08-16T21:16:47.456Z,6.97
2017-08-16T21:19:16.525Z,6.83
2017-08-16T21:21:45.695Z,8.20
2017-08-16T21:24:14.059Z,7.27
2017-08-16T21:26:42.485Z,7.93
2017-08-16T21:29:10.887Z,7.97
2017-08-16T21:31:39.358Z,6.10
2017-08-16T21:34:07.729Z,7.27
2017-08-16T21:36:36.905Z,7.67
2017-08-16T21:39:06.001Z,7.60
2017-08-16T21:41:34.505Z,7.37
2017-08-16T21:44:03.706Z,7.27
2017-08-16T21:46:32.743Z,6.87
2017-08-16T21:49:01.098Z,7.10
2017-08-16T21:51:29.454Z,6.43
2017-08-16T21:53:58.528Z,6.70
2017-08-16T21:56:28.566Z,6.87
2017-08-16T21:58:56.930Z,7.00
2017-08-16T22:01:25.252Z,7.47
2017-08-16T22:03:53.633Z,7.63
2017-08-16T22:06:21.913Z,8.03
2017-08-16T22:08:50.254Z,8.00
2017-08-16T22:11:18.588Z,7.23
2017-08-16T22:13:46.910Z,7.33
2017-08-16T22:16:15.184Z,6.80
2017-08-16T22:18:43.592Z,7.20
2017-08-16T22:21:11.886Z,7.80
2017-08-16T22:23:40.162Z,7.63
2017-08-16T22:26:08.505Z,7.50
2017-08-16T22:28:36.886Z,7.90
2017-08-16T22:31:06.084Z,7.70
2017-08-16T22:33:35.424Z,8.80
2017-08-16T22:36:04.745Z,7.63
2017-08-16T22:38:33.062Z,7.70
2017-08-16T22:41:02.135Z,7.47
2017-08-16T22:43:31.292Z,8.70
2017-08-16T22:45:59.630Z,8.10
2017-08-16T22:48:28.014Z,8.93
2017-08-16T22:50:57.056Z,8.27
2017-08-16T22:53:25.323Z,8.33
2017-08-16T22:55:55.698Z,8.10
2017-08-16T22:58:30.066Z,7.67
2017-08-16T23:00:58.491Z,7.27
2017-08-16T23:03:26.828Z,8.47
2017-08-16T23:05:55.186Z,8.00
2017-08-16T23:08:23.559Z,9.30
2017-08-16T23:10:52.023Z,8.03
2017-08-16T23:13:21.070Z,8.30
2017-08-16T23:15:49.330Z,7.93
2017-08-16T23:18:17.674Z,8.17
2017-08-16T23:20:46.143Z,8.07
2017-08-16T23:23:15.258Z,9.27
2017-08-16T23:25:44.388Z,8.47
2017-08-16T23:28:12.711Z,7.80
2017-08-16T23:30:41.747Z,7.77
2017-08-16T23:33:10.186Z,7.70
2017-08-16T23:35:38.559Z,8.17
2017-08-16T23:38:06.959Z,7.60
2017-08-16T23:40:36.356Z,7.60
2017-08-16T23:43:04.635Z,8.23
2017-08-16T23:45:33.669Z,8.83
2017-08-16T23:48:02.099Z,8.70
2017-08-16T23:50:30.358Z,8.63
2017-08-16T23:52:58.651Z,8.57
2017-08-16T23:58:21.992Z,9.57
